createdAt,value
2022-10-17T00:01:07.796Z,72.99
2022-10-17T00:03:34.978Z,73.33
2022-10-17T00:06:05.983Z,73.46
2022-10-17T00:08:32.641Z,73.38
2022-10-17T00:11:01.266Z,73.40
2022-10-17T00:13:28.063Z,73.44
2022-10-17T00:15:54.928Z,73.28
2022-10-17T00:18:21.593Z,73.32
2022-10-17T00:20:48.249Z,73.30
2022-10-17T00:23:14.936Z,73.21
2022-10-17T00:25:41.756Z,73.20
2022-10-17T00:28:12.399Z,73.04
2022-10-17T00:30:39.203Z,72.88
2022-10-17T00:33:05.951Z,73.16
2022-10-17T00:35:32.876Z,73.07
2022-10-17T00:37:59.580Z,72.89
2022-10-17T00:40:26.326Z,72.75
2022-10-17T00:42:53.252Z,72.75
2022-10-17T00:45:21.376Z,73.00
2022-10-17T00:48:14.437Z,73.23
2022-10-17T00:50:42.512Z,73.14
2022-10-17T00:53:26.457Z,73.10
2022-10-17T00:55:53.116Z,73.34
2022-10-17T00:58:19.776Z,73.56
2022-10-17T01:00:47.020Z,73.43
2022-10-17T01:03:15.065Z,73.45
2022-10-17T01:05:42.033Z,73.73
2022-10-17T01:08:08.780Z,73.39
2022-10-17T01:10:45.620Z,73.54
2022-10-17T01:13:15.249Z,73.29
2022-10-17T01:15:41.860Z,73.52
2022-10-17T01:18:37.771Z,73.37
2022-10-17T01:21:30.932Z,73.24
2022-10-17T01:24:25.253Z,73.20
2022-10-17T01:27:10.766Z,73.14
2022-10-17T01:29:56.018Z,73.64
2022-10-17T01:32:31.560Z,74.04
2022-10-17T01:35:00.356Z,74.54
2022-10-17T01:37:41.453Z,74.44
2022-10-17T01:40:17.400Z,74.59
2022-10-17T01:42:53.265Z,74.29
2022-10-17T01:45:23.588Z,74.48
2022-10-17T01:47:50.882Z,74.56
2022-10-17T01:50:20.313Z,74.71
2022-10-17T01:52:59.263Z,75.10
2022-10-17T01:55:32.156Z,75.14
2022-10-17T01:58:10.692Z,75.16
2022-10-17T02:00:44.388Z,74.90
2022-10-17T02:03:14.224Z,74.92
2022-10-17T02:05:41.569Z,74.90
2022-10-17T02:08:09.703Z,75.20
2022-10-17T02:10:57.099Z,74.90
2022-10-17T02:13:29.781Z,75.25
2022-10-17T02:16:08.610Z,75.37
2022-10-17T02:18:47.076Z,75.29
2022-10-17T02:21:43.085Z,75.21
2022-10-17T02:24:17.763Z,75.06
2022-10-17T02:26:47.201Z,74.88
2022-10-17T02:29:16.831Z,74.90
2022-10-17T02:31:45.182Z,74.98
2022-10-17T02:34:33.844Z,74.94
2022-10-17T02:37:02.177Z,74.86
2022-10-17T02:39:29.048Z,75.16
2022-10-17T02:41:57.136Z,75.08
2022-10-17T02:44:23.827Z,74.87
2022-10-17T02:46:55.963Z,74.82
2022-10-17T02:49:23.997Z,74.57
2022-10-17T02:51:56.803Z,74.58
2022-10-17T02:54:25.205Z,74.67
2022-10-17T02:56:59.154Z,74.75
2022-10-17T02:59:25.909Z,74.68
2022-10-17T03:01:52.692Z,74.58
2022-10-17T03:04:19.484Z,74.50
2022-10-17T03:06:47.113Z,74.48
2022-10-17T03:09:14.071Z,74.26
2022-10-17T03:11:40.915Z,74.49
2022-10-17T03:14:07.973Z,74.11
2022-10-17T03:16:34.733Z,74.14
2022-10-17T03:19:01.475Z,74.31
2022-10-17T03:21:28.212Z,74.28
2022-10-17T03:23:55.304Z,74.21
2022-10-17T03:26:22.116Z,74.04
2022-10-17T03:28:51.952Z,74.00
2022-10-17T03:31:21.260Z,74.05
2022-10-17T03:33:48.243Z,74.13
2022-10-17T03:36:16.272Z,74.14
2022-10-17T03:38:46.469Z,73.92
2022-10-17T03:41:13.378Z,74.00
2022-10-17T03:43:40.128Z,73.84
2022-10-17T03:46:07.963Z,73.84
2022-10-17T03:48:35.006Z,73.75
2022-10-17T03:51:08.554Z,73.70
2022-10-17T03:53:39.750Z,73.49
2022-10-17T03:56:10.650Z,73.56
2022-10-17T03:58:37.452Z,73.53
2022-10-17T04:01:08.978Z,73.48
2022-10-17T04:03:35.712Z,73.12
2022-10-17T04:06:02.844Z,73.42
2022-10-17T04:08:31.348Z,73.44
2022-10-17T04:11:13.853Z,73.43
2022-10-17T04:13:40.849Z,73.56
2022-10-17T04:16:08.754Z,73.49
2022-10-17T04:18:36.816Z,73.62
2022-10-17T04:21:04.302Z,73.95
2022-10-17T04:23:31.345Z,73.88
2022-10-17T04:26:01.328Z,73.79
2022-10-17T04:28:41.605Z,73.54
2022-10-17T04:31:10.351Z,73.64
2022-10-17T04:33:48.673Z,73.66
2022-10-17T04:36:17.108Z,73.55
2022-10-17T04:38:44.160Z,73.40
2022-10-17T04:41:12.704Z,73.62
2022-10-17T04:43:39.737Z,73.89
2022-10-17T04:46:11.692Z,73.82
2022-10-17T04:48:38.670Z,74.12
2022-10-17T04:51:07.576Z,74.22
2022-10-17T04:53:42.959Z,74.23
2022-10-17T04:56:10.544Z,74.06
2022-10-17T04:58:37.981Z,74.38
2022-10-17T05:01:06.993Z,74.26
2022-10-17T05:03:34.812Z,73.83
2022-10-17T05:06:09.932Z,72.77
2022-10-17T05:08:37.066Z,70.67
2022-10-17T05:11:04.135Z,69.07
2022-10-17T05:13:30.896Z,67.73
2022-10-17T05:16:01.294Z,65.90
2022-10-17T05:18:28.829Z,64.24
2022-10-17T05:20:56.789Z,63.26
2022-10-17T05:23:23.739Z,62.69
2022-10-17T05:25:54.752Z,63.10
2022-10-17T05:28:23.985Z,63.07
2022-10-17T05:30:52.014Z,63.33
2022-10-17T05:33:18.732Z,63.48
2022-10-17T05:35:45.506Z,63.70
2022-10-17T05:38:12.246Z,63.89
2022-10-17T05:40:39.576Z,64.22
2022-10-17T05:43:06.448Z,64.61
2022-10-17T05:45:33.366Z,64.87
2022-10-17T05:48:00.275Z,64.97
2022-10-17T05:57:53.965Z,67.14
2022-10-17T06:00:22.023Z,67.69
2022-10-17T06:02:54.077Z,68.49
2022-10-17T06:05:22.227Z,69.34
2022-10-17T06:07:52.534Z,69.89
2022-10-17T06:10:20.149Z,70.61
2022-10-17T06:12:46.968Z,71.38
2022-10-17T06:15:15.060Z,71.82
2022-10-17T06:17:44.811Z,72.02
2022-10-17T06:20:11.650Z,72.46
2022-10-17T06:22:38.331Z,72.83
2022-10-17T06:25:10.676Z,72.94
2022-10-17T06:27:37.398Z,72.76
2022-10-17T06:30:04.948Z,73.83
2022-10-17T06:32:32.157Z,73.73
2022-10-17T06:34:59.489Z,73.56
2022-10-17T06:37:32.301Z,73.22
2022-10-17T06:40:04.168Z,72.66
2022-10-17T06:42:31.793Z,72.21
2022-10-17T06:45:08.923Z,71.30
2022-10-17T06:47:53.535Z,70.77
2022-10-17T06:50:38.686Z,69.60
2022-10-17T06:53:17.831Z,67.65
2022-10-17T06:56:04.391Z,65.28
2022-10-17T06:58:52.955Z,64.02
2022-10-17T07:01:41.870Z,62.67
2022-10-17T07:04:11.640Z,61.54
2022-10-17T07:06:38.877Z,60.96
2022-10-17T07:09:11.492Z,59.69
2022-10-17T07:11:38.360Z,58.62
2022-10-17T07:14:05.106Z,58.01
2022-10-17T07:16:33.704Z,57.28
2022-10-17T07:19:29.593Z,56.95
2022-10-17T07:21:56.445Z,56.70
2022-10-17T07:24:23.207Z,56.56
2022-10-17T07:27:13.754Z,56.02
2022-10-17T07:29:40.661Z,55.61
2022-10-17T07:32:31.003Z,55.35
2022-10-17T07:34:58.649Z,54.79
2022-10-17T07:37:25.705Z,53.90
2022-10-17T07:39:56.647Z,53.03
2022-10-17T07:42:23.424Z,52.21
2022-10-17T07:44:51.149Z,52.01
2022-10-17T07:47:18.859Z,51.43
2022-10-17T07:49:47.234Z,50.97
2022-10-17T07:52:14.308Z,50.46
2022-10-17T07:54:41.399Z,50.14
2022-10-17T07:57:08.112Z,49.71
2022-10-17T07:59:35.122Z,49.54
2022-10-17T08:02:01.940Z,48.79
2022-10-17T08:04:28.762Z,48.18
2022-10-17T08:07:05.458Z,47.56
2022-10-17T08:09:38.644Z,47.21
2022-10-17T08:12:05.521Z,46.63
2022-10-17T08:14:32.294Z,46.28
2022-10-17T08:16:59.134Z,46.19
2022-10-17T08:19:25.901Z,45.62
2022-10-17T08:21:54.381Z,45.03
2022-10-17T08:24:21.183Z,44.88
2022-10-17T08:26:49.578Z,44.77
2022-10-17T08:29:18.626Z,44.17
2022-10-17T08:31:49.984Z,43.92
2022-10-17T08:34:19.300Z,43.70
2022-10-17T08:36:47.056Z,43.88
2022-10-17T08:39:13.868Z,43.43
2022-10-17T08:41:49.745Z,42.79
2022-10-17T08:44:30.098Z,42.37
2022-10-17T08:46:59.204Z,41.88
2022-10-17T08:49:51.581Z,41.87
2022-10-17T08:52:33.373Z,41.44
2022-10-17T08:55:00.212Z,40.77
2022-10-17T08:57:28.986Z,40.86
2022-10-17T08:59:57.235Z,40.71
2022-10-17T09:02:44.456Z,40.22
2022-10-17T09:05:37.652Z,39.91
2022-10-17T09:08:31.996Z,39.81
2022-10-17T09:11:03.959Z,39.85
2022-10-17T09:13:41.373Z,39.92
2022-10-17T09:16:24.518Z,39.60
2022-10-17T09:18:57.557Z,39.22
2022-10-17T09:21:30.562Z,38.98
2022-10-17T09:24:09.053Z,39.04
2022-10-17T09:26:38.861Z,38.70
2022-10-17T09:29:10.839Z,38.64
2022-10-17T09:31:42.758Z,38.76
2022-10-17T09:34:09.869Z,38.55
2022-10-17T09:36:38.538Z,38.27
2022-10-17T09:39:14.233Z,38.30
2022-10-17T09:41:48.100Z,38.11
2022-10-17T09:44:23.089Z,38.02
2022-10-17T09:47:27.244Z,37.77
2022-10-17T09:49:53.875Z,37.80
2022-10-17T09:52:25.703Z,37.99
2022-10-17T09:55:03.325Z,38.07
2022-10-17T09:57:30.654Z,37.99
2022-10-17T10:00:01.929Z,37.50
2022-10-17T10:02:30.594Z,37.60
2022-10-17T10:05:07.101Z,37.78
2022-10-17T10:07:37.098Z,37.78
2022-10-17T10:10:05.912Z,37.86
2022-10-17T10:12:35.029Z,38.03
2022-10-17T10:15:02.233Z,38.09
2022-10-17T10:17:36.876Z,38.21
2022-10-17T10:20:36.852Z,37.67
2022-10-17T10:23:15.011Z,37.29
2022-10-17T10:25:59.874Z,37.36
2022-10-17T10:28:29.089Z,37.69
2022-10-17T10:30:55.976Z,37.81
2022-10-17T10:33:23.791Z,37.26
2022-10-17T10:35:59.525Z,37.12
2022-10-17T10:38:26.229Z,37.06
2022-10-17T10:40:54.979Z,36.76
2022-10-17T10:43:25.476Z,36.85
2022-10-17T10:45:52.306Z,36.96
2022-10-17T10:48:51.360Z,37.42
2022-10-17T10:51:21.379Z,37.58
2022-10-17T10:54:20.958Z,37.53
2022-10-17T10:56:52.637Z,37.63
2022-10-17T10:59:35.510Z,37.07
2022-10-17T11:04:17.762Z,36.62
2022-10-17T11:06:45.009Z,36.03
2022-10-17T11:09:33.950Z,35.91
2022-10-17T11:12:12.213Z,36.33
2022-10-17T11:14:51.220Z,36.22
2022-10-17T11:17:50.417Z,36.33
2022-10-17T11:20:27.126Z,36.04
2022-10-17T11:23:01.646Z,36.01
2022-10-17T11:25:36.881Z,36.04
2022-10-17T11:28:23.937Z,35.96
2022-10-17T11:31:03.344Z,35.93
2022-10-17T11:33:44.746Z,35.58
2022-10-17T11:36:11.491Z,35.59
2022-10-17T11:38:49.470Z,35.27
2022-10-17T11:41:20.878Z,35.63
2022-10-17T11:43:54.190Z,35.85
2022-10-17T11:46:24.617Z,35.59
2022-10-17T11:49:20.575Z,35.69
2022-10-17T11:52:01.557Z,35.47
2022-10-17T11:54:39.026Z,35.49
2022-10-17T11:57:24.586Z,35.53
2022-10-17T12:00:32.445Z,35.86
2022-10-17T12:03:16.058Z,35.98
2022-10-17T12:05:48.653Z,35.95
2022-10-17T12:08:26.923Z,36.05
2022-10-17T12:11:01.137Z,35.46
2022-10-17T12:13:28.589Z,35.67
2022-10-17T12:15:58.086Z,35.57
2022-10-17T12:18:27.282Z,35.60
2022-10-17T12:20:58.080Z,35.44
2022-10-17T12:23:29.272Z,35.54
2022-10-17T12:26:01.574Z,35.21
2022-10-17T12:28:37.561Z,35.18
2022-10-17T12:31:13.265Z,35.41
2022-10-17T12:33:46.241Z,34.94
2022-10-17T12:36:21.214Z,34.99
2022-10-17T12:38:50.222Z,34.60
2022-10-17T12:41:17.846Z,34.49
2022-10-17T12:46:51.207Z,34.35
2022-10-17T12:49:46.589Z,34.36
2022-10-17T12:52:31.854Z,34.41
2022-10-17T12:55:14.031Z,34.52
2022-10-17T12:58:05.537Z,34.70
2022-10-17T13:00:43.802Z,34.33
2022-10-17T13:03:30.607Z,34.30
2022-10-17T13:06:05.656Z,34.32
2022-10-17T13:08:34.295Z,34.27
2022-10-17T13:11:01.044Z,34.26
2022-10-17T13:13:39.197Z,34.11
2022-10-17T13:16:06.080Z,34.39
2022-10-17T13:18:32.976Z,34.13
2022-10-17T13:21:01.957Z,33.88
2022-10-17T13:23:36.030Z,33.92
2022-10-17T13:26:22.228Z,33.90
2022-10-17T13:29:04.884Z,33.97
2022-10-17T13:31:36.356Z,33.92
2022-10-17T13:34:05.161Z,34.26
2022-10-17T13:36:32.450Z,34.24
2022-10-17T13:39:00.331Z,34.32
2022-10-17T13:41:36.808Z,34.52
2022-10-17T13:44:13.373Z,34.67
2022-10-17T13:46:40.171Z,34.70
2022-10-17T13:49:18.811Z,34.81
2022-10-17T13:51:47.295Z,34.78
2022-10-17T13:54:32.030Z,34.76
2022-10-17T13:56:59.009Z,34.76
2022-10-17T13:59:48.067Z,34.84
2022-10-17T14:02:17.411Z,34.92
2022-10-17T14:05:15.207Z,35.02
2022-10-17T14:08:13.048Z,34.95
2022-10-17T14:10:42.900Z,35.36
2022-10-17T14:13:19.806Z,35.62
2022-10-17T14:15:46.595Z,35.97
2022-10-17T14:18:25.504Z,36.28
2022-10-17T14:23:43.570Z,36.78
2022-10-17T14:26:36.915Z,37.78
2022-10-17T14:29:06.172Z,38.74
2022-10-17T14:31:34.089Z,39.83
2022-10-17T14:34:01.787Z,40.72
2022-10-17T14:36:36.288Z,41.26
2022-10-17T14:39:03.664Z,42.01
2022-10-17T14:41:48.078Z,42.59
2022-10-17T14:44:26.684Z,43.21
2022-10-17T14:46:59.420Z,43.83
2022-10-17T14:49:30.497Z,44.20
2022-10-17T14:52:18.356Z,44.73
2022-10-17T14:54:47.123Z,45.20
2022-10-17T14:57:19.420Z,45.75
2022-10-17T14:59:55.100Z,46.11
2022-10-17T15:02:27.270Z,46.60
2022-10-17T15:04:54.300Z,47.15
2022-10-17T15:07:21.343Z,47.58
2022-10-17T15:09:50.595Z,47.95
2022-10-17T15:12:23.289Z,48.37
2022-10-17T15:14:50.746Z,48.85
2022-10-17T15:17:20.887Z,49.39
2022-10-17T15:19:50.846Z,49.78
2022-10-17T15:22:18.349Z,50.42
2022-10-17T15:24:47.965Z,50.87
2022-10-17T15:27:22.585Z,51.38
2022-10-17T15:29:49.541Z,51.73
2022-10-17T15:32:16.220Z,52.28
2022-10-17T15:34:42.856Z,52.59
2022-10-17T15:37:21.731Z,52.91
2022-10-17T15:39:54.534Z,53.02
2022-10-17T15:42:22.515Z,53.23
2022-10-17T15:44:50.365Z,53.66
2022-10-17T15:47:35.405Z,53.85
2022-10-17T15:50:02.203Z,54.30
2022-10-17T15:52:28.817Z,54.64
2022-10-17T15:54:57.287Z,54.96
2022-10-17T15:57:30.322Z,55.08
2022-10-17T15:59:57.807Z,55.32
2022-10-17T16:02:24.659Z,55.40
2022-10-17T16:04:51.589Z,55.79
2022-10-17T16:07:19.039Z,56.19
2022-10-17T16:09:45.808Z,56.54
2022-10-17T16:12:17.353Z,56.52
2022-10-17T16:14:44.119Z,56.69
2022-10-17T16:17:15.255Z,56.95
2022-10-17T16:19:42.742Z,57.09
2022-10-17T16:22:26.780Z,57.30
2022-10-17T16:24:58.936Z,57.69
2022-10-17T16:27:26.417Z,57.86
2022-10-17T16:29:53.167Z,58.14
2022-10-17T16:32:20.019Z,58.34
2022-10-17T16:34:46.747Z,58.40
2022-10-17T16:37:13.445Z,58.44
2022-10-17T16:39:40.113Z,58.59
2022-10-17T16:42:07.109Z,58.55
2022-10-17T16:44:34.020Z,58.64
2022-10-17T16:47:00.707Z,58.71
2022-10-17T16:49:27.388Z,58.81
2022-10-17T16:51:54.046Z,58.86
2022-10-17T16:54:20.706Z,59.01
2022-10-17T16:56:47.389Z,59.21
2022-10-17T16:59:14.109Z,59.36
2022-10-17T17:01:41.725Z,59.54
2022-10-17T17:04:09.441Z,59.93
2022-10-17T17:06:36.748Z,60.18
2022-10-17T17:09:03.497Z,60.27
2022-10-17T17:11:31.477Z,60.54
2022-10-17T17:13:58.717Z,60.83
2022-10-17T17:16:26.404Z,60.98
2022-10-17T17:19:02.916Z,61.12
2022-10-17T17:21:29.730Z,61.15
2022-10-17T17:23:58.359Z,61.40
2022-10-17T17:26:25.606Z,61.68
2022-10-17T17:28:53.516Z,61.94
2022-10-17T17:31:24.798Z,62.13
2022-10-17T17:33:52.169Z,62.38
2022-10-17T17:36:23.202Z,62.62
2022-10-17T17:38:50.573Z,62.80
2022-10-17T17:41:18.328Z,62.95
2022-10-17T17:43:46.015Z,62.97
2022-10-17T17:46:13.121Z,63.23
2022-10-17T17:48:41.173Z,63.23
2022-10-17T17:51:11.261Z,63.46
2022-10-17T17:53:38.148Z,63.42
2022-10-17T17:56:10.176Z,63.79
2022-10-17T17:58:37.109Z,63.92
2022-10-17T18:01:12.351Z,64.14
2022-10-17T18:03:41.197Z,64.29
2022-10-17T18:06:08.082Z,64.47
2022-10-17T18:08:35.177Z,64.67
2022-10-17T18:11:01.930Z,64.81
2022-10-17T18:13:28.689Z,64.80
2022-10-17T18:15:57.949Z,65.11
2022-10-17T18:18:25.562Z,65.25
2022-10-17T18:20:52.459Z,65.44
2022-10-17T18:23:19.737Z,65.67
2022-10-17T18:26:05.217Z,65.69
2022-10-17T18:28:36.948Z,65.69
2022-10-17T18:31:24.304Z,65.88
2022-10-17T18:33:55.525Z,65.71
2022-10-17T18:36:22.406Z,65.73
2022-10-17T18:38:49.158Z,65.82
2022-10-17T18:41:18.070Z,65.88
2022-10-17T18:43:45.707Z,65.78
2022-10-17T18:46:21.386Z,65.86
2022-10-17T18:48:48.571Z,65.94
2022-10-17T18:51:17.142Z,65.91
2022-10-17T18:53:45.041Z,66.02
2022-10-17T18:56:12.144Z,66.23
2022-10-17T18:58:39.188Z,66.37
2022-10-17T19:01:07.974Z,66.44
2022-10-17T19:03:34.804Z,66.79
2022-10-17T19:06:02.991Z,66.68
2022-10-17T19:08:29.849Z,66.60
2022-10-17T19:10:56.634Z,66.73
2022-10-17T19:13:23.324Z,66.87
2022-10-17T19:15:50.055Z,66.98
2022-10-17T19:18:17.043Z,66.95
2022-10-17T19:20:44.543Z,67.37
2022-10-17T19:23:11.790Z,67.41
2022-10-17T19:25:38.484Z,67.42
2022-10-17T19:28:05.137Z,67.70
2022-10-17T19:30:31.815Z,67.68
2022-10-17T19:32:58.925Z,67.51
2022-10-17T19:35:25.609Z,67.57
2022-10-17T19:37:52.425Z,67.88
2022-10-17T19:40:19.240Z,67.87
2022-10-17T19:42:45.997Z,67.78
2022-10-17T19:45:12.654Z,67.76
2022-10-17T19:47:40.836Z,67.68
2022-10-17T19:50:07.892Z,67.87
2022-10-17T19:52:34.535Z,67.81
2022-10-17T19:55:01.257Z,68.13
2022-10-17T19:57:27.920Z,68.13
2022-10-17T19:59:56.028Z,68.11
2022-10-17T20:02:23.355Z,68.25
2022-10-17T20:05:06.332Z,68.69
2022-10-17T20:07:36.840Z,68.68
2022-10-17T20:10:03.805Z,68.85
2022-10-17T20:12:30.828Z,68.89
2022-10-17T20:14:57.818Z,68.96
2022-10-17T20:17:24.785Z,68.98
2022-10-17T20:19:51.648Z,69.30
2022-10-17T20:22:18.341Z,69.09
2022-10-17T20:24:45.444Z,69.39
2022-10-17T20:27:12.089Z,69.14
2022-10-17T20:29:38.946Z,69.37
2022-10-17T20:32:05.762Z,69.63
2022-10-17T20:34:35.535Z,69.57
2022-10-17T20:37:02.489Z,69.76
2022-10-17T20:39:29.455Z,69.63
2022-10-17T20:41:56.550Z,69.51
2022-10-17T20:44:23.267Z,69.76
2022-10-17T20:47:01.213Z,69.50
2022-10-17T20:49:28.696Z,69.47
2022-10-17T20:51:55.382Z,69.66
2022-10-17T20:54:22.453Z,69.76
2022-10-17T20:56:49.189Z,69.44
2022-10-17T20:59:16.681Z,69.55
2022-10-17T21:01:43.722Z,69.47
2022-10-17T21:04:40.287Z,69.56
2022-10-17T21:06:57.399Z,69.72
2022-10-17T21:09:24.039Z,69.78
2022-10-17T21:11:54.416Z,69.70
2022-10-17T21:14:21.902Z,70.17
2022-10-17T21:16:48.647Z,69.94
2022-10-17T21:19:18.990Z,70.23
2022-10-17T21:21:46.303Z,70.31
2022-10-17T21:24:16.909Z,70.39
2022-10-17T21:26:44.680Z,70.46
2022-10-17T21:29:12.374Z,70.56
2022-10-17T21:31:40.614Z,70.48
2022-10-17T21:34:15.120Z,70.52
2022-10-17T21:36:41.827Z,70.41
2022-10-17T21:39:09.791Z,70.61
2022-10-17T21:41:36.571Z,70.54
2022-10-17T21:44:05.119Z,70.58
2022-10-17T21:46:32.017Z,70.23
2022-10-17T21:48:59.038Z,70.39
2022-10-17T21:51:26.028Z,70.72
2022-10-17T21:53:53.977Z,70.85
2022-10-17T21:56:23.685Z,70.77
2022-10-17T21:58:50.872Z,70.67
2022-10-17T22:01:20.155Z,70.42
2022-10-17T22:03:48.426Z,70.91
2022-10-17T22:09:04.748Z,71.00
2022-10-17T22:11:34.589Z,71.03
2022-10-17T22:14:03.237Z,70.94
2022-10-17T22:16:29.868Z,70.75
2022-10-17T22:19:00.523Z,70.93
2022-10-17T22:21:29.970Z,71.01
2022-10-17T22:23:58.791Z,71.21
2022-10-17T22:26:26.341Z,71.25
2022-10-17T22:28:53.090Z,71.42
2022-10-17T22:31:19.884Z,71.41
2022-10-17T22:33:46.578Z,71.42
2022-10-17T22:36:13.296Z,71.25
2022-10-17T22:38:40.016Z,71.40
2022-10-17T22:41:06.848Z,71.41
2022-10-17T22:43:33.465Z,71.13
2022-10-17T22:46:01.684Z,71.34
2022-10-17T22:48:28.601Z,71.23
2022-10-17T22:50:55.851Z,71.27
2022-10-17T22:53:24.288Z,71.19
2022-10-17T22:56:00.913Z,71.41
2022-10-17T22:58:28.440Z,71.60
2022-10-17T23:00:55.214Z,71.28
2022-10-17T23:03:22.179Z,71.18
2022-10-17T23:05:48.877Z,71.20
2022-10-17T23:08:16.010Z,71.48
2022-10-17T23:10:42.733Z,71.53
2022-10-17T23:13:09.517Z,71.41
2022-10-17T23:15:36.239Z,71.75
2022-10-17T23:18:02.985Z,71.98
2022-10-17T23:21:40.802Z,71.76
2022-10-17T23:24:07.448Z,71.93
2022-10-17T23:26:34.095Z,72.22
2022-10-17T23:29:00.828Z,72.04
2022-10-17T23:31:27.540Z,71.90
2022-10-17T23:33:54.186Z,71.96
2022-10-17T23:36:21.127Z,72.07
2022-10-17T23:38:48.021Z,72.26
2022-10-17T23:41:14.676Z,72.43
2022-10-17T23:43:41.387Z,72.34
2022-10-17T23:46:08.453Z,72.25
2022-10-17T23:48:35.220Z,72.19
2022-10-17T23:51:01.898Z,72.24
2022-10-17T23:53:28.663Z,72.28
2022-10-17T23:55:55.329Z,72.48
2022-10-17T23:58:22.013Z,72.82
